createdAt,value
2022-10-21T00:00:12.614Z,100127.63
2022-10-21T00:02:40.795Z,100121.41
2022-10-21T00:05:09.311Z,100120.56
2022-10-21T00:07:38.644Z,100117.13
2022-10-21T00:10:07.691Z,100107.00
2022-10-21T00:12:36.100Z,100108.38
2022-10-21T00:15:05.165Z,100103.22
2022-10-21T00:17:35.415Z,100098.97
2022-10-21T00:20:03.470Z,100096.84
2022-10-21T00:22:31.984Z,100099.94
2022-10-21T00:25:01.528Z,100092.94
2022-10-21T00:27:29.533Z,100092.47
2022-10-21T00:29:57.603Z,100085.69
2022-10-21T00:32:25.520Z,100074.75
2022-10-21T00:34:53.392Z,100087.63
2022-10-21T00:37:21.354Z,100080.66
2022-10-21T00:39:49.259Z,100059.25
2022-10-21T00:42:20.514Z,100063.47
2022-10-21T00:45:03.324Z,100063.94
2022-10-21T00:47:31.960Z,100069.25
2022-10-21T00:50:01.364Z,100077.25
2022-10-21T00:52:31.003Z,100078.84
2022-10-21T00:55:01.965Z,100080.50
2022-10-21T00:57:32.698Z,100089.56
2022-10-21T01:00:01.875Z,100074.88
2022-10-21T01:02:30.287Z,100079.19
2022-10-21T01:05:00.129Z,100087.16
2022-10-21T01:07:28.193Z,100078.25
2022-10-21T01:09:56.092Z,100083.59
2022-10-21T01:12:28.733Z,100094.31
2022-10-21T01:17:44.548Z,100094.44
2022-10-21T01:20:38.315Z,100088.00
2022-10-21T01:23:17.006Z,100089.97
2022-10-21T01:25:58.479Z,100088.84
2022-10-21T01:28:35.528Z,100085.31
2022-10-21T01:31:10.559Z,100087.81
2022-10-21T01:33:43.431Z,100084.09
2022-10-21T01:36:16.847Z,100082.53
2022-10-21T01:38:46.948Z,100073.81
2022-10-21T01:41:16.854Z,100073.19
2022-10-21T01:43:49.019Z,100063.03
2022-10-21T01:46:24.235Z,100056.25
2022-10-21T01:48:55.724Z,100053.84
2022-10-21T01:54:02.403Z,100049.19
2022-10-21T01:56:31.041Z,100045.84
2022-10-21T01:58:59.616Z,100034.25
2022-10-21T02:01:29.236Z,100026.69
2022-10-21T02:03:59.996Z,100022.38
2022-10-21T02:06:28.190Z,100019.13
2022-10-21T02:08:56.612Z,100014.78
2022-10-21T02:11:24.757Z,100009.66
2022-10-21T02:13:57.295Z,100009.34
2022-10-21T02:16:27.689Z,100012.56
2022-10-21T02:18:57.569Z,100009.66
2022-10-21T02:21:26.921Z,100005.63
2022-10-21T02:23:56.495Z,99994.66
2022-10-21T02:26:25.328Z,99989.66
2022-10-21T02:28:54.253Z,99984.81
2022-10-21T02:31:33.644Z,99984.34
2022-10-21T02:34:08.813Z,99985.91
2022-10-21T02:36:41.792Z,99978.00
2022-10-21T02:39:14.743Z,99983.00
2022-10-21T02:41:43.750Z,99987.03
2022-10-21T02:44:11.767Z,99981.72
2022-10-21T02:46:42.224Z,99974.78
2022-10-21T02:49:11.527Z,99982.34
2022-10-21T02:51:40.402Z,99980.53
2022-10-21T02:54:08.542Z,99975.72
2022-10-21T02:56:36.504Z,99974.59
2022-10-21T02:59:04.458Z,99966.22
2022-10-21T03:01:32.529Z,99968.66
2022-10-21T03:04:00.673Z,99962.34
2022-10-21T03:06:30.156Z,99964.75
2022-10-21T03:08:58.224Z,99978.63
2022-10-21T03:11:26.225Z,99970.56
2022-10-21T03:13:54.166Z,99975.03
2022-10-21T03:16:22.094Z,99974.69
2022-10-21T03:18:50.122Z,99981.44
2022-10-21T03:21:18.049Z,99973.72
2022-10-21T03:23:47.304Z,99975.00
2022-10-21T03:26:15.382Z,99976.97
2022-10-21T03:28:43.315Z,99982.31
2022-10-21T03:31:16.463Z,99982.97
2022-10-21T03:33:44.426Z,99966.38
2022-10-21T03:36:12.330Z,99965.56
2022-10-21T03:38:40.173Z,99963.47
2022-10-21T03:41:09.434Z,99958.75
2022-10-21T03:43:37.534Z,99962.31
2022-10-21T03:46:05.614Z,99951.34
2022-10-21T03:48:33.551Z,99950.19
2022-10-21T03:51:01.503Z,99941.34
2022-10-21T03:53:42.851Z,99939.59
2022-10-21T03:56:13.138Z,99940.56
2022-10-21T03:58:41.420Z,99947.19
2022-10-21T04:01:11.411Z,99945.44
2022-10-21T04:03:39.402Z,99939.78
2022-10-21T04:06:32.849Z,99943.16
2022-10-21T04:09:01.065Z,99937.81
2022-10-21T04:11:30.725Z,99942.78
2022-10-21T04:13:58.698Z,99947.63
2022-10-21T04:16:26.705Z,99936.03
2022-10-21T04:18:54.720Z,99940.88
2022-10-21T04:23:55.789Z,99935.88
2022-10-21T04:26:23.669Z,99937.94
2022-10-21T04:28:53.014Z,99933.88
2022-10-21T04:31:20.882Z,99939.31
2022-10-21T04:33:49.904Z,99947.22
2022-10-21T04:36:18.004Z,99941.41
2022-10-21T04:38:45.925Z,99933.84
2022-10-21T04:41:14.067Z,99936.06
2022-10-21T04:43:42.261Z,99933.34
2022-10-21T04:46:14.154Z,99925.63
2022-10-21T04:48:42.540Z,99934.97
2022-10-21T04:51:10.561Z,99927.38
2022-10-21T04:53:38.694Z,99934.47
2022-10-21T04:56:07.359Z,99926.88
2022-10-21T04:58:35.493Z,99918.41
2022-10-21T05:01:03.944Z,99922.28
2022-10-21T05:03:33.520Z,99925.69
2022-10-21T05:06:01.727Z,99930.22
2022-10-21T05:08:29.802Z,99933.91
2022-10-21T05:10:58.416Z,99936.63
2022-10-21T05:13:26.479Z,99938.19
2022-10-21T05:15:54.509Z,99930.00
2022-10-21T05:18:22.659Z,99935.53
2022-10-21T05:20:52.925Z,99928.78
2022-10-21T05:23:21.119Z,99915.25
2022-10-21T05:25:50.615Z,99916.19
2022-10-21T05:28:19.158Z,99916.81
2022-10-21T05:30:47.387Z,99918.53
2022-10-21T05:33:15.344Z,99925.41
2022-10-21T05:35:43.333Z,99925.91
2022-10-21T05:38:12.611Z,99924.91
2022-10-21T05:40:40.896Z,99911.88
2022-10-21T05:43:08.818Z,99916.56
2022-10-21T05:45:36.802Z,99911.09
2022-10-21T05:48:05.096Z,99906.63
2022-10-21T05:50:33.159Z,99907.59
2022-10-21T05:53:01.016Z,99905.00
2022-10-21T05:55:30.275Z,99910.91
2022-10-21T05:57:59.443Z,99907.38
2022-10-21T06:00:27.981Z,99900.59
2022-10-21T06:02:56.191Z,99895.31
2022-10-21T06:05:24.129Z,99902.72
2022-10-21T06:08:06.059Z,99901.72
2022-10-21T06:10:39.104Z,99898.81
2022-10-21T06:13:15.047Z,99903.31
2022-10-21T06:16:00.186Z,99895.88
2022-10-21T06:18:33.110Z,99889.28
2022-10-21T06:21:07.794Z,99893.03
2022-10-21T06:23:47.682Z,99886.25
2022-10-21T06:26:30.969Z,99889.16
2022-10-21T06:29:15.119Z,99895.91
2022-10-21T06:31:58.697Z,99900.75
2022-10-21T06:34:32.615Z,99908.31
2022-10-21T06:37:06.975Z,99896.56
2022-10-21T06:39:40.213Z,99904.34
2022-10-21T06:42:28.575Z,99912.25
2022-10-21T06:45:00.437Z,99906.31
2022-10-21T06:47:38.878Z,99919.34
2022-10-21T06:50:16.322Z,99913.75
2022-10-21T06:52:45.564Z,99910.72
2022-10-21T06:55:29.376Z,99914.44
2022-10-21T06:57:59.594Z,99921.38
2022-10-21T07:00:27.705Z,99911.56
2022-10-21T07:02:55.952Z,99912.91
2022-10-21T07:05:23.934Z,99920.94
2022-10-21T07:07:52.523Z,99921.91
2022-10-21T07:10:20.491Z,99926.13
2022-10-21T07:12:48.587Z,99926.44
2022-10-21T07:15:18.080Z,99938.72
2022-10-21T07:17:46.128Z,99935.13
2022-10-21T07:20:14.124Z,99935.47
2022-10-21T07:22:42.065Z,99944.38
2022-10-21T07:25:10.708Z,99949.97
2022-10-21T07:27:39.805Z,99951.75
2022-10-21T07:30:08.993Z,99949.31
2022-10-21T07:32:38.258Z,99958.97
2022-10-21T07:35:06.650Z,99942.19
2022-10-21T07:37:34.633Z,99942.03
2022-10-21T07:40:02.855Z,99959.59
2022-10-21T07:42:30.998Z,99959.25
2022-10-21T07:45:01.149Z,99956.59
2022-10-21T07:47:29.361Z,99956.91
2022-10-21T07:49:58.717Z,99973.69
2022-10-21T07:52:27.576Z,99965.72
2022-10-21T07:54:55.504Z,99971.59
2022-10-21T07:57:23.428Z,99973.38
2022-10-21T07:59:51.410Z,99968.66
2022-10-21T08:02:19.521Z,99972.16
2022-10-21T08:04:47.551Z,99974.06
2022-10-21T08:07:17.170Z,99974.53
2022-10-21T08:09:45.260Z,99972.41
2022-10-21T08:12:15.882Z,99984.34
2022-10-21T08:14:44.169Z,99992.09
2022-10-21T08:17:12.354Z,99995.47
2022-10-21T08:19:40.519Z,99994.00
2022-10-21T08:22:08.810Z,99992.19
2022-10-21T08:24:41.404Z,99988.13
2022-10-21T08:27:10.559Z,99974.38
2022-10-21T08:29:40.062Z,99973.59
2022-10-21T08:32:08.352Z,99977.63
2022-10-21T08:34:36.276Z,99978.56
2022-10-21T08:37:04.503Z,99978.81
2022-10-21T08:39:32.680Z,99982.97
2022-10-21T08:42:08.871Z,99978.44
2022-10-21T08:44:41.089Z,99986.81
2022-10-21T08:47:14.548Z,99983.25
2022-10-21T08:49:46.901Z,99997.09
2022-10-21T08:52:17.329Z,99986.66
2022-10-21T08:54:47.693Z,99978.56
2022-10-21T08:57:17.393Z,99981.78
2022-10-21T08:59:45.374Z,99976.56
2022-10-21T09:02:23.004Z,99982.44
2022-10-21T09:04:55.131Z,99976.50
2022-10-21T09:07:28.733Z,99969.81
2022-10-21T09:10:00.370Z,99971.56
2022-10-21T09:12:34.150Z,99990.00
2022-10-21T09:15:11.617Z,99982.50
2022-10-21T09:17:55.660Z,99981.72
2022-10-21T09:20:32.851Z,99976.88
2022-10-21T09:23:05.882Z,99983.66
2022-10-21T09:25:35.191Z,99982.19
2022-10-21T09:28:11.033Z,99994.25
2022-10-21T09:30:40.694Z,99991.75
2022-10-21T09:33:12.927Z,99988.78
2022-10-21T09:35:45.044Z,99991.56
2022-10-21T09:38:16.555Z,99992.91
2022-10-21T09:40:45.627Z,99997.19
2022-10-21T09:43:17.778Z,99999.59
2022-10-21T09:45:46.700Z,100002.13
2022-10-21T09:48:25.629Z,100010.59
2022-10-21T09:50:55.011Z,100008.75
2022-10-21T09:53:26.536Z,100020.38
2022-10-21T09:55:59.175Z,100013.94
2022-10-21T09:58:30.161Z,100020.25
2022-10-21T10:00:58.690Z,100024.84
2022-10-21T10:03:30.905Z,100020.94
2022-10-21T10:05:59.179Z,100034.25
2022-10-21T10:08:36.262Z,100032.41
2022-10-21T10:11:06.028Z,100025.41
2022-10-21T10:13:36.223Z,100032.75
2022-10-21T10:16:14.819Z,100032.06
2022-10-21T10:18:43.317Z,100031.84
2022-10-21T10:21:12.230Z,100023.81
2022-10-21T10:23:44.425Z,100020.94
2022-10-21T10:26:18.138Z,100028.88
2022-10-21T10:28:51.934Z,100033.13
2022-10-21T10:31:25.217Z,100027.47
2022-10-21T10:33:58.811Z,100041.94
2022-10-21T10:36:29.606Z,100042.41
2022-10-21T10:38:59.264Z,100052.38
2022-10-21T10:41:32.067Z,100059.28
2022-10-21T10:44:02.539Z,100069.78
2022-10-21T10:46:31.973Z,100071.13
2022-10-21T10:49:04.484Z,100072.75
2022-10-21T10:51:34.534Z,100071.47
2022-10-21T10:54:04.154Z,100074.34
2022-10-21T10:56:35.625Z,100068.56
2022-10-21T10:59:12.163Z,100074.28
2022-10-21T11:01:43.489Z,100071.06
2022-10-21T11:04:17.771Z,100068.19
2022-10-21T11:06:49.115Z,100065.75
2022-10-21T11:09:18.585Z,100075.81
2022-10-21T11:11:48.088Z,100059.78
2022-10-21T11:14:21.937Z,100048.56
2022-10-21T11:17:00.578Z,100049.50
2022-10-21T11:19:36.596Z,100076.09
2022-10-21T11:22:10.235Z,100080.31
2022-10-21T11:24:55.355Z,100078.09
2022-10-21T11:27:28.695Z,100060.25
2022-10-21T11:30:03.654Z,100060.25
2022-10-21T11:32:37.275Z,100060.50
2022-10-21T11:35:13.778Z,100057.28
2022-10-21T11:37:49.221Z,100062.34
2022-10-21T11:40:20.904Z,100059.84
2022-10-21T11:42:50.678Z,100068.22
2022-10-21T11:45:31.681Z,100062.53
2022-10-21T11:48:04.283Z,100065.84
2022-10-21T11:50:37.176Z,100067.78
2022-10-21T11:53:15.218Z,100058.31
2022-10-21T11:55:48.695Z,100059.28
2022-10-21T11:58:24.010Z,100058.84
2022-10-21T12:00:59.781Z,100060.22
2022-10-21T12:03:39.918Z,100050.47
2022-10-21T12:06:15.503Z,100051.00
2022-10-21T12:08:50.759Z,100045.69
2022-10-21T12:11:23.155Z,100038.91
2022-10-21T12:13:53.340Z,100048.69
2022-10-21T12:16:25.463Z,100037.88
2022-10-21T12:18:55.107Z,100040.63
2022-10-21T12:21:25.048Z,100040.38
2022-10-21T12:23:55.724Z,100037.88
2022-10-21T12:26:25.563Z,100039.56
2022-10-21T12:28:56.908Z,100033.72
2022-10-21T12:31:30.643Z,100039.03
2022-10-21T12:33:58.959Z,100034.31
2022-10-21T12:36:40.648Z,100026.78
2022-10-21T12:39:12.805Z,100020.69
2022-10-21T12:41:42.041Z,100025.53
2022-10-21T12:44:23.957Z,100025.78
2022-10-21T12:46:54.834Z,100021.09
2022-10-21T12:49:24.824Z,100019.22
2022-10-21T12:51:55.453Z,100010.78
2022-10-21T12:54:28.102Z,100016.09
2022-10-21T12:57:02.018Z,100006.56
2022-10-21T12:59:35.025Z,100003.03
2022-10-21T13:02:18.895Z,99993.19
2022-10-21T13:04:48.650Z,99984.78
2022-10-21T13:07:30.754Z,99989.88
2022-10-21T13:10:16.690Z,99991.09
2022-10-21T13:12:47.497Z,99995.66
2022-10-21T13:15:36.669Z,99989.84
2022-10-21T13:18:06.299Z,99995.38
2022-10-21T13:20:49.668Z,99997.41
2022-10-21T13:23:32.308Z,99985.81
2022-10-21T13:26:08.455Z,99980.53
2022-10-21T13:28:36.879Z,99986.56
2022-10-21T13:31:05.010Z,99987.38
2022-10-21T13:33:35.593Z,99988.34
2022-10-21T13:36:09.041Z,99992.47
2022-10-21T13:38:39.224Z,99985.66
2022-10-21T13:41:08.446Z,99997.41
2022-10-21T13:43:39.368Z,99993.47
2022-10-21T13:46:08.757Z,100001.34
2022-10-21T13:48:40.587Z,99998.72
2022-10-21T13:51:15.886Z,99999.00
2022-10-21T13:53:45.817Z,100010.81
2022-10-21T13:56:21.066Z,100015.34
2022-10-21T13:58:49.723Z,100020.88
2022-10-21T14:01:20.251Z,100023.22
2022-10-21T14:03:50.264Z,100016.41
2022-10-21T14:06:20.725Z,100001.94
2022-10-21T14:08:49.324Z,100013.53
2022-10-21T14:11:19.651Z,100016.69
2022-10-21T14:13:49.167Z,100023.66
2022-10-21T14:16:22.037Z,100017.00
2022-10-21T14:18:52.163Z,100009.50
2022-10-21T14:21:22.046Z,100008.38
2022-10-21T14:23:50.870Z,100009.53
2022-10-21T14:26:19.413Z,100010.78
2022-10-21T14:28:48.579Z,100012.13
2022-10-21T14:31:18.652Z,100012.00
2022-10-21T14:33:47.544Z,100011.22
2022-10-21T14:36:19.691Z,100008.44
2022-10-21T14:38:56.267Z,100016.31
2022-10-21T14:41:25.958Z,100001.63
2022-10-21T14:43:55.025Z,100003.78
2022-10-21T14:46:23.114Z,99998.84
2022-10-21T14:48:53.153Z,100010.63
2022-10-21T14:51:23.930Z,99995.75
2022-10-21T14:53:54.819Z,100008.66
2022-10-21T14:56:25.247Z,100001.38
2022-10-21T14:58:55.444Z,100007.13
2022-10-21T15:01:24.032Z,100009.59
2022-10-21T15:03:53.033Z,99999.47
2022-10-21T15:06:23.135Z,100004.13
2022-10-21T15:09:02.522Z,100006.44
2022-10-21T15:11:33.295Z,99991.91
2022-10-21T15:14:06.907Z,99998.16
2022-10-21T15:16:36.436Z,99997.56
2022-10-21T15:19:08.389Z,100000.34
2022-10-21T15:21:41.094Z,99999.16
2022-10-21T15:24:17.887Z,99989.25
2022-10-21T15:26:47.020Z,99995.53
2022-10-21T15:29:19.776Z,99986.72
2022-10-21T15:31:48.551Z,99993.38
2022-10-21T15:34:17.458Z,99987.59
2022-10-21T15:36:47.101Z,99994.31
2022-10-21T15:39:15.273Z,99984.88
2022-10-21T15:41:43.327Z,99999.03
2022-10-21T15:44:19.132Z,100000.78
2022-10-21T15:46:49.944Z,99996.19
2022-10-21T15:49:21.748Z,99997.69
2022-10-21T15:51:52.148Z,100004.28
2022-10-21T15:54:21.249Z,100003.66
2022-10-21T15:56:50.729Z,99996.06
2022-10-21T15:59:19.592Z,100001.50
2022-10-21T16:01:48.144Z,100005.25
2022-10-21T16:04:16.683Z,100005.88
2022-10-21T16:06:47.906Z,100010.34
2022-10-21T16:09:20.510Z,100008.28
2022-10-21T16:11:59.112Z,100018.00
2022-10-21T16:14:29.507Z,100008.38
2022-10-21T16:16:59.128Z,100016.84
2022-10-21T16:19:27.264Z,100018.88
2022-10-21T16:21:55.287Z,100017.72
2022-10-21T16:24:24.689Z,100021.38
2022-10-21T16:26:53.037Z,100016.41
2022-10-21T16:29:22.050Z,100015.41
2022-10-21T16:31:50.554Z,100013.47
2022-10-21T16:34:18.598Z,100017.03
2022-10-21T16:36:46.658Z,100015.97
2022-10-21T16:39:16.271Z,100020.41
2022-10-21T16:41:46.144Z,100007.38
2022-10-21T16:44:14.678Z,100014.91
2022-10-21T16:46:47.423Z,100016.13
2022-10-21T16:49:16.887Z,100024.09
2022-10-21T16:51:46.534Z,100018.25
2022-10-21T16:54:14.894Z,100018.63
2022-10-21T16:56:43.146Z,100024.81
2022-10-21T16:59:12.476Z,100024.81
2022-10-21T17:01:41.043Z,100031.50
2022-10-21T17:04:09.320Z,100033.34
2022-10-21T17:06:37.543Z,100035.00
2022-10-21T17:09:06.071Z,100034.50
2022-10-21T17:11:36.511Z,100037.03
2022-10-21T17:14:06.264Z,100039.31
2022-10-21T17:16:35.597Z,100040.22
2022-10-21T17:19:04.899Z,100034.81
2022-10-21T17:21:33.649Z,100034.72
2022-10-21T17:24:02.296Z,100047.00
2022-10-21T17:26:31.045Z,100040.53
2022-10-21T17:28:59.175Z,100053.59
2022-10-21T17:31:27.871Z,100052.13
2022-10-21T17:33:58.170Z,100055.75
2022-10-21T17:36:26.506Z,100060.56
2022-10-21T17:38:54.557Z,100063.06
2022-10-21T17:41:22.571Z,100069.91
2022-10-21T17:43:50.519Z,100065.47
2022-10-21T17:46:19.524Z,100075.69
2022-10-21T17:48:49.992Z,100076.31
2022-10-21T17:51:19.551Z,100082.69
2022-10-21T17:53:49.078Z,100081.06
2022-10-21T17:56:17.735Z,100081.72
2022-10-21T17:58:46.103Z,100083.16
2022-10-21T18:01:14.503Z,100084.28
2022-10-21T18:03:42.666Z,100092.22
2022-10-21T18:06:11.750Z,100092.53
2022-10-21T18:08:41.432Z,100092.31
2022-10-21T18:11:10.595Z,100097.19
2022-10-21T18:13:38.872Z,100102.69
2022-10-21T18:16:08.275Z,100100.81
2022-10-21T18:18:36.780Z,100103.00
2022-10-21T18:21:05.541Z,100096.22
2022-10-21T18:23:34.042Z,100101.38
2022-10-21T18:26:05.257Z,100099.97
2022-10-21T18:28:34.258Z,100098.22
2022-10-21T18:31:02.231Z,100098.84
2022-10-21T18:33:30.680Z,100097.56
2022-10-21T18:36:06.943Z,100095.69
2022-10-21T18:38:35.028Z,100103.66
2022-10-21T18:41:23.470Z,100095.41
2022-10-21T18:43:52.371Z,100093.19
2022-10-21T18:46:21.026Z,100096.59
2022-10-21T18:48:49.208Z,100086.94
2022-10-21T18:51:18.763Z,100085.19
2022-10-21T18:53:49.944Z,100082.78
2022-10-21T18:56:22.481Z,100088.94
2022-10-21T18:58:50.903Z,100093.78
2022-10-21T19:01:19.598Z,100086.19
2022-10-21T19:03:47.779Z,100082.22
2022-10-21T19:06:16.902Z,100089.59
2022-10-21T19:08:45.116Z,100088.88
2022-10-21T19:11:13.169Z,100089.28
2022-10-21T19:13:42.580Z,100091.25
2022-10-21T19:16:10.601Z,100090.94
2022-10-21T19:18:38.981Z,100103.41
2022-10-21T19:21:07.620Z,100111.63
2022-10-21T19:23:35.599Z,100112.78
2022-10-21T19:26:04.020Z,100107.41
2022-10-21T19:28:32.761Z,100114.59
2022-10-21T19:31:02.383Z,100108.66
2022-10-21T19:33:30.853Z,100105.44
2022-10-21T19:35:59.928Z,100107.41
2022-10-21T19:38:43.114Z,100112.59
2022-10-21T19:41:13.355Z,100112.63
2022-10-21T19:43:41.372Z,100113.06
2022-10-21T19:46:12.250Z,100112.13
2022-10-21T19:48:40.299Z,100106.75
2022-10-21T19:51:14.475Z,100109.66
2022-10-21T19:53:45.033Z,100116.78
2022-10-21T19:56:13.931Z,100114.03
2022-10-21T19:58:43.569Z,100106.41
2022-10-21T20:01:13.855Z,100104.03
2022-10-21T20:03:43.011Z,100107.13
2022-10-21T20:08:45.429Z,100126.19
2022-10-21T20:11:14.322Z,100125.19
2022-10-21T20:13:42.802Z,100128.09
2022-10-21T20:16:16.199Z,100122.44
2022-10-21T20:18:44.385Z,100123.28
2022-10-21T20:21:12.787Z,100128.47
2022-10-21T20:23:40.816Z,100130.38
2022-10-21T20:26:09.334Z,100127.28
2022-10-21T20:28:37.750Z,100138.63
2022-10-21T20:31:06.888Z,100144.63
2022-10-21T20:33:36.784Z,100142.34
2022-10-21T20:36:05.402Z,100151.88
2022-10-21T20:38:33.900Z,100163.00
2022-10-21T20:41:03.283Z,100176.75
2022-10-21T20:43:31.347Z,100172.22
2022-10-21T20:46:00.902Z,100157.03
2022-10-21T20:48:29.332Z,100161.25
2022-10-21T20:51:05.484Z,100153.03
2022-10-21T20:53:33.598Z,100155.13
2022-10-21T20:56:03.460Z,100159.00
2022-10-21T20:58:34.200Z,100152.59
2022-10-21T21:01:07.201Z,100149.03
2022-10-21T21:03:37.901Z,100150.66
2022-10-21T21:06:08.104Z,100166.31
2022-10-21T21:08:37.103Z,100161.78
2022-10-21T21:11:05.799Z,100178.56
2022-10-21T21:13:34.282Z,100179.03
2022-10-21T21:16:06.108Z,100178.09
2022-10-21T21:18:34.746Z,100177.91
2022-10-21T21:21:03.792Z,100183.38
2022-10-21T21:23:33.847Z,100180.00
2022-10-21T21:26:05.514Z,100177.41
2022-10-21T21:28:35.589Z,100184.19
2022-10-21T21:31:04.922Z,100183.22
2022-10-21T21:33:33.447Z,100188.06
2022-10-21T21:36:01.599Z,100173.84
2022-10-21T21:38:33.908Z,100175.25
2022-10-21T21:41:05.619Z,100171.88
2022-10-21T21:43:37.935Z,100170.28
2022-10-21T21:46:08.527Z,100172.03
2022-10-21T21:48:38.216Z,100174.63
2022-10-21T21:51:10.246Z,100163.16
2022-10-21T21:53:38.861Z,100163.84
2022-10-21T21:56:09.623Z,100160.94
2022-10-21T21:58:38.785Z,100164.81
2022-10-21T22:01:11.132Z,100170.28
2022-10-21T22:03:40.237Z,100156.25
2022-10-21T22:06:08.959Z,100158.84
2022-10-21T22:08:38.424Z,100150.44
2022-10-21T22:11:09.529Z,100156.38
2022-10-21T22:13:38.286Z,100156.06
2022-10-21T22:16:06.960Z,100156.06
2022-10-21T22:18:35.125Z,100151.97
2022-10-21T22:21:06.124Z,100163.69
2022-10-21T22:23:35.247Z,100150.47
2022-10-21T22:26:03.421Z,100158.53
2022-10-21T22:28:32.912Z,100161.56
2022-10-21T22:31:02.081Z,100158.34
2022-10-21T22:33:31.064Z,100162.16
2022-10-21T22:35:59.833Z,100161.34
2022-10-21T22:38:29.194Z,100160.03
2022-10-21T22:40:58.203Z,100165.53
2022-10-21T22:43:26.740Z,100165.84
2022-10-21T22:46:04.961Z,100159.06
2022-10-21T22:48:43.557Z,100158.94
2022-10-21T22:51:11.463Z,100157.44
2022-10-21T22:53:39.520Z,100157.25
2022-10-21T22:56:07.674Z,100156.63
2022-10-21T22:58:35.721Z,100155.50
2022-10-21T23:01:08.829Z,100148.22
2022-10-21T23:03:37.515Z,100163.22
2022-10-21T23:06:10.041Z,100160.97
2022-10-21T23:08:38.525Z,100162.84
2022-10-21T23:11:06.559Z,100169.25
2022-10-21T23:13:34.431Z,100165.84
2022-10-21T23:16:02.611Z,100165.97
2022-10-21T23:18:31.904Z,100162.25
2022-10-21T23:20:59.999Z,100169.47
2022-10-21T23:23:32.045Z,100171.94
2022-10-21T23:26:00.036Z,100162.09
2022-10-21T23:28:28.077Z,100165.81
2022-10-21T23:30:56.254Z,100175.78
2022-10-21T23:33:24.749Z,100185.13
2022-10-21T23:35:54.349Z,100182.88
2022-10-21T23:38:22.729Z,100190.09
2022-10-21T23:40:50.807Z,100186.69
2022-10-21T23:43:18.796Z,100180.03
2022-10-21T23:45:48.579Z,100177.19
2022-10-21T23:48:16.589Z,100180.28
2022-10-21T23:50:44.820Z,100184.63
2022-10-21T23:53:14.238Z,100193.34
2022-10-21T23:55:42.373Z,100193.59
2022-10-21T23:58:10.512Z,100198.47
